Terminal Aerodrome Forecast
Issued by NWS Shreveport, LA

Home | Current Version | Previous Version | Text Only | Print | Product List | Glossary On
Versions: 1 2 3 4 5 6 7 8 9 10 11 12 13 14 15 16
000
FTUS44 KSHV 221100
TAFMLU
TAF
KMLU 221121Z 2212/2312 14004KT 6SM BR OVC003
      TEMPO 2212/2214 2SM BR OVC005
     FM221400 17005KT 2SM BR OVC004
     FM221600 17006KT 5SM BR OVC007
     FM221800 19008KT P6SM OVC009
     FM222100 19008KT P6SM OVC012
     FM230300 24007KT P6SM OVC007=

USA.gov is the U.S. government's official web portal to all federal, state and local government web resources and services.